sensor_id;sensor_type;location;lat;lon;timestamp;P1;durP1;ratioP1;P2;durP2;ratioP2
56321;SDS011;42227;6.376;-10.782;2023-07-09T00:01:28;11.75;;;9.00;;
56321;SDS011;42227;6.376;-10.782;2023-07-09T00:03:56;17.58;;;8.55;;
56321;SDS011;42227;6.376;-10.782;2023-07-09T00:06:24;17.02;;;10.05;;
56321;SDS011;42227;6.376;-10.782;2023-07-09T00:08:53;18.95;;;9.15;;
56321;SDS011;42227;6.376;-10.782;2023-07-09T00:11:21;12.20;;;8.98;;
56321;SDS011;42227;6.376;-10.782;2023-07-09T00:13:50;15.73;;;8.13;;
56321;SDS011;42227;6.376;-10.782;2023-07-09T00:16:20;12.10;;;7.85;;
56321;SDS011;42227;6.376;-10.782;2023-07-09T00:18:51;20.42;;;9.45;;
56321;SDS011;42227;6.376;-10.782;2023-07-09T00:21:20;13.23;;;8.95;;
56321;SDS011;42227;6.376;-10.782;2023-07-09T00:23:51;14.75;;;8.77;;
56321;SDS011;42227;6.376;-10.782;2023-07-09T00:26:19;13.75;;;8.93;;
56321;SDS011;42227;6.376;-10.782;2023-07-09T00:28:49;11.25;;;8.05;;
56321;SDS011;42227;6.376;-10.782;2023-07-09T00:31:17;13.48;;;7.50;;
56321;SDS011;42227;6.376;-10.782;2023-07-09T00:33:46;14.90;;;9.40;;
56321;SDS011;42227;6.376;-10.782;2023-07-09T00:36:18;14.07;;;8.80;;
56321;SDS011;42227;6.376;-10.782;2023-07-09T00:38:55;13.63;;;8.25;;
56321;SDS011;42227;6.376;-10.782;2023-07-09T00:41:24;18.58;;;9.23;;
56321;SDS011;42227;6.376;-10.782;2023-07-09T00:43:54;13.23;;;10.13;;
56321;SDS011;42227;6.376;-10.782;2023-07-09T00:48:56;12.13;;;8.35;;
56321;SDS011;42227;6.376;-10.782;2023-07-09T00:51:33;14.18;;;8.68;;
56321;SDS011;42227;6.376;-10.782;2023-07-09T00:54:12;13.48;;;8.65;;
56321;SDS011;42227;6.376;-10.782;2023-07-09T00:56:53;21.77;;;9.68;;
56321;SDS011;42227;6.376;-10.782;2023-07-09T00:59:22;13.68;;;8.80;;
56321;SDS011;42227;6.376;-10.782;2023-07-09T01:01:57;18.45;;;11.70;;
56321;SDS011;42227;6.376;-10.782;2023-07-09T01:04:26;17.92;;;11.88;;
56321;SDS011;42227;6.376;-10.782;2023-07-09T01:06:56;19.33;;;10.80;;
56321;SDS011;42227;6.376;-10.782;2023-07-09T01:09:24;17.58;;;11.45;;
56321;SDS011;42227;6.376;-10.782;2023-07-09T01:11:53;20.33;;;13.25;;
56321;SDS011;42227;6.376;-10.782;2023-07-09T01:14:22;18.02;;;10.65;;
56321;SDS011;42227;6.376;-10.782;2023-07-09T01:16:56;19.23;;;10.68;;
56321;SDS011;42227;6.376;-10.782;2023-07-09T01:19:29;17.58;;;9.90;;
56321;SDS011;42227;6.376;-10.782;2023-07-09T01:22:04;14.10;;;9.75;;
56321;SDS011;42227;6.376;-10.782;2023-07-09T01:27:14;19.98;;;10.10;;
56321;SDS011;42227;6.376;-10.782;2023-07-09T01:29:43;17.38;;;10.70;;
56321;SDS011;42227;6.376;-10.782;2023-07-09T01:32:13;19.48;;;11.55;;
56321;SDS011;42227;6.376;-10.782;2023-07-09T01:34:43;18.85;;;10.82;;
56321;SDS011;42227;6.376;-10.782;2023-07-09T01:37:13;16.55;;;10.15;;
56321;SDS011;42227;6.376;-10.782;2023-07-09T01:39:45;19.52;;;11.57;;
56321;SDS011;42227;6.376;-10.782;2023-07-09T01:42:13;16.95;;;11.27;;
56321;SDS011;42227;6.376;-10.782;2023-07-09T01:44:44;16.15;;;8.88;;
56321;SDS011;42227;6.376;-10.782;2023-07-09T01:47:12;16.42;;;8.80;;
56321;SDS011;42227;6.376;-10.782;2023-07-09T01:49:41;15.57;;;9.57;;
56321;SDS011;42227;6.376;-10.782;2023-07-09T01:52:09;10.55;;;7.75;;
56321;SDS011;42227;6.376;-10.782;2023-07-09T01:54:38;15.80;;;10.05;;
56321;SDS011;42227;6.376;-10.782;2023-07-09T01:57:17;14.85;;;9.75;;
56321;SDS011;42227;6.376;-10.782;2023-07-09T01:59:45;10.80;;;8.75;;
56321;SDS011;42227;6.376;-10.782;2023-07-09T02:02:14;12.93;;;8.27;;
56321;SDS011;42227;6.376;-10.782;2023-07-09T02:04:43;14.65;;;8.35;;
56321;SDS011;42227;6.376;-10.782;2023-07-09T02:07:16;19.05;;;9.13;;
56321;SDS011;42227;6.376;-10.782;2023-07-09T02:09:45;19.27;;;10.57;;
56321;SDS011;42227;6.376;-10.782;2023-07-09T02:12:14;14.18;;;9.32;;
56321;SDS011;42227;6.376;-10.782;2023-07-09T02:14:43;21.95;;;10.48;;
56321;SDS011;42227;6.376;-10.782;2023-07-09T02:17:13;18.90;;;12.02;;
56321;SDS011;42227;6.376;-10.782;2023-07-09T02:19:42;21.05;;;12.35;;
56321;SDS011;42227;6.376;-10.782;2023-07-09T02:22:11;24.23;;;11.65;;
56321;SDS011;42227;6.376;-10.782;2023-07-09T02:24:40;12.88;;;8.65;;
56321;SDS011;42227;6.376;-10.782;2023-07-09T02:27:08;15.32;;;8.32;;
56321;SDS011;42227;6.376;-10.782;2023-07-09T02:29:38;12.25;;;8.52;;
56321;SDS011;42227;6.376;-10.782;2023-07-09T02:32:06;9.90;;;7.20;;
56321;SDS011;42227;6.376;-10.782;2023-07-09T02:34:35;10.57;;;7.28;;
56321;SDS011;42227;6.376;-10.782;2023-07-09T02:37:04;12.23;;;8.27;;
56321;SDS011;42227;6.376;-10.782;2023-07-09T02:39:32;16.17;;;8.57;;
56321;SDS011;42227;6.376;-10.782;2023-07-09T02:42:00;15.55;;;7.85;;
56321;SDS011;42227;6.376;-10.782;2023-07-09T02:44:29;11.27;;;7.80;;
56321;SDS011;42227;6.376;-10.782;2023-07-09T02:46:58;12.05;;;8.13;;
56321;SDS011;42227;6.376;-10.782;2023-07-09T02:49:27;14.13;;;8.43;;
56321;SDS011;42227;6.376;-10.782;2023-07-09T02:51:56;18.08;;;7.88;;
56321;SDS011;42227;6.376;-10.782;2023-07-09T02:54:24;15.95;;;8.88;;
56321;SDS011;42227;6.376;-10.782;2023-07-09T02:56:52;18.33;;;8.65;;
56321;SDS011;42227;6.376;-10.782;2023-07-09T02:59:21;17.98;;;8.70;;
56321;SDS011;42227;6.376;-10.782;2023-07-09T03:01:50;14.05;;;7.50;;
56321;SDS011;42227;6.376;-10.782;2023-07-09T03:04:19;12.45;;;7.78;;
56321;SDS011;42227;6.376;-10.782;2023-07-09T03:06:47;19.02;;;8.25;;
56321;SDS011;42227;6.376;-10.782;2023-07-09T03:09:16;14.68;;;6.47;;
56321;SDS011;42227;6.376;-10.782;2023-07-09T03:11:44;9.32;;;6.85;;
56321;SDS011;42227;6.376;-10.782;2023-07-09T03:14:13;21.73;;;9.30;;
56321;SDS011;42227;6.376;-10.782;2023-07-09T03:16:42;11.48;;;6.57;;
56321;SDS011;42227;6.376;-10.782;2023-07-09T03:19:10;11.98;;;7.18;;
56321;SDS011;42227;6.376;-10.782;2023-07-09T03:21:39;15.05;;;6.38;;
56321;SDS011;42227;6.376;-10.782;2023-07-09T03:24:07;18.80;;;7.68;;
56321;SDS011;42227;6.376;-10.782;2023-07-09T03:26:36;10.55;;;5.63;;
56321;SDS011;42227;6.376;-10.782;2023-07-09T03:29:04;14.20;;;7.20;;
56321;SDS011;42227;6.376;-10.782;2023-07-09T03:31:33;13.73;;;9.07;;
56321;SDS011;42227;6.376;-10.782;2023-07-09T03:34:02;9.00;;;7.40;;
56321;SDS011;42227;6.376;-10.782;2023-07-09T03:36:30;8.30;;;6.78;;
56321;SDS011;42227;6.376;-10.782;2023-07-09T03:38:59;13.57;;;7.85;;
56321;SDS011;42227;6.376;-10.782;2023-07-09T03:41:28;9.82;;;7.50;;
56321;SDS011;42227;6.376;-10.782;2023-07-09T03:43:56;15.38;;;8.13;;
56321;SDS011;42227;6.376;-10.782;2023-07-09T03:46:24;22.67;;;8.88;;
56321;SDS011;42227;6.376;-10.782;2023-07-09T03:48:53;13.73;;;8.80;;
56321;SDS011;42227;6.376;-10.782;2023-07-09T03:51:22;15.73;;;8.73;;
56321;SDS011;42227;6.376;-10.782;2023-07-09T03:53:50;24.33;;;9.13;;
56321;SDS011;42227;6.376;-10.782;2023-07-09T03:56:19;12.20;;;8.65;;
56321;SDS011;42227;6.376;-10.782;2023-07-09T03:58:47;18.83;;;8.20;;
56321;SDS011;42227;6.376;-10.782;2023-07-09T04:01:16;11.88;;;7.38;;
56321;SDS011;42227;6.376;-10.782;2023-07-09T04:03:44;23.83;;;8.88;;
56321;SDS011;42227;6.376;-10.782;2023-07-09T04:06:13;14.15;;;8.38;;
56321;SDS011;42227;6.376;-10.782;2023-07-09T04:08:41;12.38;;;8.07;;
56321;SDS011;42227;6.376;-10.782;2023-07-09T04:11:09;16.75;;;8.80;;
56321;SDS011;42227;6.376;-10.782;2023-07-09T04:13:38;15.93;;;8.52;;
56321;SDS011;42227;6.376;-10.782;2023-07-09T04:16:06;16.58;;;7.60;;
56321;SDS011;42227;6.376;-10.782;2023-07-09T04:18:38;14.45;;;8.75;;
56321;SDS011;42227;6.376;-10.782;2023-07-09T04:21:06;17.70;;;8.20;;
56321;SDS011;42227;6.376;-10.782;2023-07-09T04:23:35;20.58;;;10.93;;
56321;SDS011;42227;6.376;-10.782;2023-07-09T04:26:04;19.00;;;11.60;;
56321;SDS011;42227;6.376;-10.782;2023-07-09T04:28:32;14.68;;;8.95;;
56321;SDS011;42227;6.376;-10.782;2023-07-09T04:31:01;11.88;;;7.68;;
56321;SDS011;42227;6.376;-10.782;2023-07-09T04:33:29;12.20;;;7.75;;
56321;SDS011;42227;6.376;-10.782;2023-07-09T04:35:58;17.67;;;8.52;;
56321;SDS011;42227;6.376;-10.782;2023-07-09T04:38:26;13.70;;;7.25;;
56321;SDS011;42227;6.376;-10.782;2023-07-09T04:40:55;13.77;;;7.53;;
56321;SDS011;42227;6.376;-10.782;2023-07-09T04:43:23;9.75;;;7.15;;
56321;SDS011;42227;6.376;-10.782;2023-07-09T04:45:51;15.98;;;7.32;;
56321;SDS011;42227;6.376;-10.782;2023-07-09T04:48:20;10.98;;;6.68;;
56321;SDS011;42227;6.376;-10.782;2023-07-09T04:50:48;13.40;;;7.03;;
56321;SDS011;42227;6.376;-10.782;2023-07-09T04:53:17;16.55;;;7.72;;
56321;SDS011;42227;6.376;-10.782;2023-07-09T04:55:45;10.82;;;7.45;;
56321;SDS011;42227;6.376;-10.782;2023-07-09T04:58:14;10.65;;;8.07;;
56321;SDS011;42227;6.376;-10.782;2023-07-09T05:00:42;14.90;;;7.63;;
56321;SDS011;42227;6.376;-10.782;2023-07-09T05:03:11;16.70;;;7.95;;
56321;SDS011;42227;6.376;-10.782;2023-07-09T05:05:43;12.88;;;7.60;;
56321;SDS011;42227;6.376;-10.782;2023-07-09T05:08:13;15.27;;;7.85;;
56321;SDS011;42227;6.376;-10.782;2023-07-09T05:10:42;22.15;;;8.25;;
56321;SDS011;42227;6.376;-10.782;2023-07-09T05:13:11;15.73;;;7.78;;
56321;SDS011;42227;6.376;-10.782;2023-07-09T05:15:40;12.43;;;8.30;;
56321;SDS011;42227;6.376;-10.782;2023-07-09T05:18:12;15.18;;;8.30;;
56321;SDS011;42227;6.376;-10.782;2023-07-09T05:20:41;14.40;;;9.00;;
56321;SDS011;42227;6.376;-10.782;2023-07-09T05:23:10;13.45;;;8.02;;
56321;SDS011;42227;6.376;-10.782;2023-07-09T05:25:39;12.63;;;8.63;;
56321;SDS011;42227;6.376;-10.782;2023-07-09T05:28:08;14.07;;;9.07;;
56321;SDS011;42227;6.376;-10.782;2023-07-09T05:30:36;15.75;;;8.50;;
56321;SDS011;42227;6.376;-10.782;2023-07-09T05:33:04;17.23;;;9.48;;
56321;SDS011;42227;6.376;-10.782;2023-07-09T05:35:33;18.83;;;9.20;;
56321;SDS011;42227;6.376;-10.782;2023-07-09T05:38:01;18.20;;;8.48;;
56321;SDS011;42227;6.376;-10.782;2023-07-09T05:40:30;16.80;;;10.70;;
56321;SDS011;42227;6.376;-10.782;2023-07-09T05:42:58;15.13;;;9.57;;
56321;SDS011;42227;6.376;-10.782;2023-07-09T05:45:27;16.67;;;10.73;;
56321;SDS011;42227;6.376;-10.782;2023-07-09T05:47:57;15.20;;;9.60;;
56321;SDS011;42227;6.376;-10.782;2023-07-09T05:50:27;11.40;;;8.68;;
56321;SDS011;42227;6.376;-10.782;2023-07-09T05:52:56;16.30;;;10.85;;
56321;SDS011;42227;6.376;-10.782;2023-07-09T05:55:24;13.98;;;9.82;;
56321;SDS011;42227;6.376;-10.782;2023-07-09T05:57:53;21.98;;;9.38;;
56321;SDS011;42227;6.376;-10.782;2023-07-09T06:00:21;18.25;;;9.80;;
56321;SDS011;42227;6.376;-10.782;2023-07-09T06:02:50;15.48;;;10.02;;
56321;SDS011;42227;6.376;-10.782;2023-07-09T06:05:19;14.82;;;9.07;;
56321;SDS011;42227;6.376;-10.782;2023-07-09T06:07:47;14.50;;;8.10;;
56321;SDS011;42227;6.376;-10.782;2023-07-09T06:10:15;12.90;;;8.20;;
56321;SDS011;42227;6.376;-10.782;2023-07-09T06:12:44;17.30;;;10.00;;
56321;SDS011;42227;6.376;-10.782;2023-07-09T06:15:12;14.65;;;8.70;;
56321;SDS011;42227;6.376;-10.782;2023-07-09T06:17:41;20.63;;;9.13;;
56321;SDS011;42227;6.376;-10.782;2023-07-09T06:20:09;15.30;;;9.50;;
56321;SDS011;42227;6.376;-10.782;2023-07-09T06:22:38;14.77;;;9.35;;
56321;SDS011;42227;6.376;-10.782;2023-07-09T06:25:06;20.45;;;11.48;;
56321;SDS011;42227;6.376;-10.782;2023-07-09T06:27:35;19.20;;;10.45;;
56321;SDS011;42227;6.376;-10.782;2023-07-09T06:30:03;19.42;;;8.45;;
56321;SDS011;42227;6.376;-10.782;2023-07-09T06:32:32;18.05;;;9.68;;
56321;SDS011;42227;6.376;-10.782;2023-07-09T06:35:01;13.02;;;9.35;;
56321;SDS011;42227;6.376;-10.782;2023-07-09T06:37:30;17.65;;;9.27;;
56321;SDS011;42227;6.376;-10.782;2023-07-09T06:39:58;14.02;;;10.63;;
56321;SDS011;42227;6.376;-10.782;2023-07-09T06:42:26;21.90;;;9.60;;
56321;SDS011;42227;6.376;-10.782;2023-07-09T06:45:04;19.15;;;10.55;;
56321;SDS011;42227;6.376;-10.782;2023-07-09T06:47:33;16.33;;;9.90;;
56321;SDS011;42227;6.376;-10.782;2023-07-09T06:50:01;18.45;;;9.05;;
56321;SDS011;42227;6.376;-10.782;2023-07-09T06:52:30;15.95;;;8.40;;
56321;SDS011;42227;6.376;-10.782;2023-07-09T06:54:58;15.63;;;8.35;;
56321;SDS011;42227;6.376;-10.782;2023-07-09T06:57:26;14.57;;;7.63;;
56321;SDS011;42227;6.376;-10.782;2023-07-09T06:59:55;16.38;;;8.73;;
56321;SDS011;42227;6.376;-10.782;2023-07-09T07:02:23;16.77;;;9.27;;
56321;SDS011;42227;6.376;-10.782;2023-07-09T07:04:52;15.80;;;9.35;;
56321;SDS011;42227;6.376;-10.782;2023-07-09T07:07:20;10.18;;;8.52;;
56321;SDS011;42227;6.376;-10.782;2023-07-09T07:09:49;16.15;;;8.68;;
56321;SDS011;42227;6.376;-10.782;2023-07-09T07:12:27;14.55;;;8.73;;
56321;SDS011;42227;6.376;-10.782;2023-07-09T07:14:56;13.15;;;8.85;;
56321;SDS011;42227;6.376;-10.782;2023-07-09T07:17:25;14.75;;;8.05;;
56321;SDS011;42227;6.376;-10.782;2023-07-09T07:19:53;18.52;;;9.18;;
56321;SDS011;42227;6.376;-10.782;2023-07-09T07:22:22;11.73;;;7.70;;
56321;SDS011;42227;6.376;-10.782;2023-07-09T07:24:50;12.07;;;7.80;;
56321;SDS011;42227;6.376;-10.782;2023-07-09T07:27:19;16.33;;;9.43;;
56321;SDS011;42227;6.376;-10.782;2023-07-09T07:29:47;13.43;;;8.88;;
56321;SDS011;42227;6.376;-10.782;2023-07-09T07:32:16;11.68;;;8.25;;
56321;SDS011;42227;6.376;-10.782;2023-07-09T07:34:44;12.82;;;8.57;;
56321;SDS011;42227;6.376;-10.782;2023-07-09T07:37:15;13.75;;;9.07;;
56321;SDS011;42227;6.376;-10.782;2023-07-09T07:39:45;15.40;;;9.95;;
56321;SDS011;42227;6.376;-10.782;2023-07-09T07:42:14;15.73;;;9.77;;
56321;SDS011;42227;6.376;-10.782;2023-07-09T07:44:43;14.95;;;8.80;;
56321;SDS011;42227;6.376;-10.782;2023-07-09T07:47:11;18.05;;;9.55;;
56321;SDS011;42227;6.376;-10.782;2023-07-09T07:49:40;22.48;;;13.68;;
56321;SDS011;42227;6.376;-10.782;2023-07-09T07:52:08;33.85;;;26.00;;
56321;SDS011;42227;6.376;-10.782;2023-07-09T07:54:37;20.35;;;14.35;;
56321;SDS011;42227;6.376;-10.782;2023-07-09T07:57:05;17.33;;;9.25;;
56321;SDS011;42227;6.376;-10.782;2023-07-09T07:59:34;14.40;;;7.22;;
56321;SDS011;42227;6.376;-10.782;2023-07-09T08:02:04;11.25;;;7.65;;
56321;SDS011;42227;6.376;-10.782;2023-07-09T08:04:33;16.80;;;9.18;;
56321;SDS011;42227;6.376;-10.782;2023-07-09T08:07:01;20.00;;;15.27;;
56321;SDS011;42227;6.376;-10.782;2023-07-09T08:09:30;33.28;;;25.13;;
56321;SDS011;42227;6.376;-10.782;2023-07-09T08:11:59;30.80;;;18.92;;
56321;SDS011;42227;6.376;-10.782;2023-07-09T08:14:28;15.50;;;9.98;;
56321;SDS011;42227;6.376;-10.782;2023-07-09T08:16:56;18.25;;;9.70;;
56321;SDS011;42227;6.376;-10.782;2023-07-09T08:19:24;16.80;;;9.27;;
56321;SDS011;42227;6.376;-10.782;2023-07-09T08:21:53;16.70;;;9.25;;
56321;SDS011;42227;6.376;-10.782;2023-07-09T08:24:21;14.50;;;9.65;;
56321;SDS011;42227;6.376;-10.782;2023-07-09T08:26:50;14.55;;;8.68;;
56321;SDS011;42227;6.376;-10.782;2023-07-09T08:29:18;18.67;;;10.75;;
56321;SDS011;42227;6.376;-10.782;2023-07-09T08:31:47;15.85;;;9.80;;
56321;SDS011;42227;6.376;-10.782;2023-07-09T08:34:15;17.50;;;8.82;;
56321;SDS011;42227;6.376;-10.782;2023-07-09T08:36:44;20.73;;;9.60;;
56321;SDS011;42227;6.376;-10.782;2023-07-09T08:39:13;15.43;;;9.07;;
56321;SDS011;42227;6.376;-10.782;2023-07-09T08:42:01;22.05;;;10.05;;
56321;SDS011;42227;6.376;-10.782;2023-07-09T08:50:28;22.17;;;9.32;;
56321;SDS011;42227;6.376;-10.782;2023-07-09T08:53:00;17.38;;;8.98;;
56321;SDS011;42227;6.376;-10.782;2023-07-09T08:55:30;16.98;;;9.13;;
56321;SDS011;42227;6.376;-10.782;2023-07-09T08:58:05;14.52;;;10.13;;
56321;SDS011;42227;6.376;-10.782;2023-07-09T09:00:54;20.13;;;9.88;;
56321;SDS011;42227;6.376;-10.782;2023-07-09T09:03:39;13.57;;;9.07;;
56321;SDS011;42227;6.376;-10.782;2023-07-09T09:06:29;12.25;;;10.13;;
56321;SDS011;42227;6.376;-10.782;2023-07-09T09:12:08;15.40;;;8.52;;
56321;SDS011;42227;6.376;-10.782;2023-07-09T09:15:03;18.85;;;10.10;;
56321;SDS011;42227;6.376;-10.782;2023-07-09T09:17:39;19.75;;;9.60;;
56321;SDS011;42227;6.376;-10.782;2023-07-09T09:20:15;16.92;;;9.15;;
56321;SDS011;42227;6.376;-10.782;2023-07-09T09:25:35;19.55;;;10.43;;
56321;SDS011;42227;6.376;-10.782;2023-07-09T09:28:09;21.13;;;9.70;;
56321;SDS011;42227;6.376;-10.782;2023-07-09T09:30:43;18.55;;;10.35;;
56321;SDS011;42227;6.376;-10.782;2023-07-09T09:33:12;21.95;;;10.52;;
56321;SDS011;42227;6.376;-10.782;2023-07-09T09:35:44;22.52;;;10.32;;
56321;SDS011;42227;6.376;-10.782;2023-07-09T09:38:18;22.65;;;10.40;;
56321;SDS011;42227;6.376;-10.782;2023-07-09T09:40:48;15.25;;;9.90;;
56321;SDS011;42227;6.376;-10.782;2023-07-09T09:43:18;16.63;;;11.45;;
56321;SDS011;42227;6.376;-10.782;2023-07-09T09:45:48;21.45;;;11.13;;
56321;SDS011;42227;6.376;-10.782;2023-07-09T09:48:29;27.90;;;11.95;;
56321;SDS011;42227;6.376;-10.782;2023-07-09T09:50:59;20.58;;;12.95;;
56321;SDS011;42227;6.376;-10.782;2023-07-09T09:53:38;20.05;;;12.00;;
56321;SDS011;42227;6.376;-10.782;2023-07-09T09:56:17;26.85;;;12.65;;
56321;SDS011;42227;6.376;-10.782;2023-07-09T09:58:54;28.45;;;13.13;;
56321;SDS011;42227;6.376;-10.782;2023-07-09T10:01:26;20.23;;;12.18;;
56321;SDS011;42227;6.376;-10.782;2023-07-09T10:03:58;21.52;;;11.25;;
56321;SDS011;42227;6.376;-10.782;2023-07-09T10:12:02;23.17;;;10.27;;
56321;SDS011;42227;6.376;-10.782;2023-07-09T10:20:07;23.52;;;11.45;;
56321;SDS011;42227;6.376;-10.782;2023-07-09T10:26:20;18.02;;;10.30;;
56321;SDS011;42227;6.376;-10.782;2023-07-09T10:29:20;16.50;;;10.70;;
56321;SDS011;42227;6.376;-10.782;2023-07-09T10:31:59;13.63;;;9.50;;
56321;SDS011;42227;6.376;-10.782;2023-07-09T10:34:43;18.02;;;11.35;;
56321;SDS011;42227;6.376;-10.782;2023-07-09T10:40:33;18.97;;;9.10;;
56321;SDS011;42227;6.376;-10.782;2023-07-09T10:43:10;16.35;;;11.10;;
56321;SDS011;42227;6.376;-10.782;2023-07-09T10:45:45;18.65;;;10.02;;
56321;SDS011;42227;6.376;-10.782;2023-07-09T10:48:29;17.65;;;9.93;;
56321;SDS011;42227;6.376;-10.782;2023-07-09T10:51:15;22.17;;;12.20;;
56321;SDS011;42227;6.376;-10.782;2023-07-09T10:53:55;14.50;;;10.63;;
56321;SDS011;42227;6.376;-10.782;2023-07-09T10:56:48;22.38;;;10.10;;
56321;SDS011;42227;6.376;-10.782;2023-07-09T10:59:27;22.95;;;10.45;;
56321;SDS011;42227;6.376;-10.782;2023-07-09T11:04:51;15.75;;;8.93;;
56321;SDS011;42227;6.376;-10.782;2023-07-09T11:11:21;17.30;;;10.15;;
56321;SDS011;42227;6.376;-10.782;2023-07-09T11:13:28;14.30;;;10.15;;
56321;SDS011;42227;6.376;-10.782;2023-07-09T11:16:39;20.30;;;9.40;;
56321;SDS011;42227;6.376;-10.782;2023-07-09T11:19:17;19.35;;;10.25;;
56321;SDS011;42227;6.376;-10.782;2023-07-09T11:21:58;17.40;;;11.93;;
56321;SDS011;42227;6.376;-10.782;2023-07-09T11:26:59;22.55;;;10.10;;
56321;SDS011;42227;6.376;-10.782;2023-07-09T11:29:28;11.23;;;5.57;;
56321;SDS011;42227;6.376;-10.782;2023-07-09T11:32:21;12.57;;;6.20;;
56321;SDS011;42227;6.376;-10.782;2023-07-09T11:34:50;8.63;;;4.57;;
56321;SDS011;42227;6.376;-10.782;2023-07-09T11:37:20;6.53;;;3.72;;
56321;SDS011;42227;6.376;-10.782;2023-07-09T11:39:54;4.40;;;3.28;;
56321;SDS011;42227;6.376;-10.782;2023-07-09T11:42:48;12.70;;;6.40;;
56321;SDS011;42227;6.376;-10.782;2023-07-09T11:45:21;15.13;;;4.78;;
56321;SDS011;42227;6.376;-10.782;2023-07-09T11:50:48;9.60;;;4.60;;
56321;SDS011;42227;6.376;-10.782;2023-07-09T11:56:07;9.02;;;5.18;;
56321;SDS011;42227;6.376;-10.782;2023-07-09T11:58:36;7.75;;;4.07;;
56321;SDS011;42227;6.376;-10.782;2023-07-09T12:01:16;5.50;;;2.75;;
56321;SDS011;42227;6.376;-10.782;2023-07-09T12:03:48;3.90;;;2.55;;
56321;SDS011;42227;6.376;-10.782;2023-07-09T12:06:28;3.38;;;2.28;;
56321;SDS011;42227;6.376;-10.782;2023-07-09T12:08:59;3.85;;;2.25;;
56321;SDS011;42227;6.376;-10.782;2023-07-09T12:11:31;6.03;;;2.53;;
56321;SDS011;42227;6.376;-10.782;2023-07-09T12:14:02;3.53;;;2.10;;
56321;SDS011;42227;6.376;-10.782;2023-07-09T12:16:39;8.05;;;3.50;;
56321;SDS011;42227;6.376;-10.782;2023-07-09T12:19:10;5.32;;;3.28;;
56321;SDS011;42227;6.376;-10.782;2023-07-09T12:21:42;5.60;;;3.03;;
56321;SDS011;42227;6.376;-10.782;2023-07-09T12:26:53;4.90;;;2.97;;
56321;SDS011;42227;6.376;-10.782;2023-07-09T12:29:35;5.55;;;3.38;;
56321;SDS011;42227;6.376;-10.782;2023-07-09T12:32:11;7.72;;;4.57;;
56321;SDS011;42227;6.376;-10.782;2023-07-09T12:34:42;6.57;;;3.88;;
56321;SDS011;42227;6.376;-10.782;2023-07-09T12:37:15;8.27;;;3.78;;
56321;SDS011;42227;6.376;-10.782;2023-07-09T12:39:43;14.82;;;4.45;;
56321;SDS011;42227;6.376;-10.782;2023-07-09T12:42:19;8.35;;;5.10;;
56321;SDS011;42227;6.376;-10.782;2023-07-09T12:44:55;7.43;;;4.45;;
56321;SDS011;42227;6.376;-10.782;2023-07-09T12:47:24;8.20;;;4.65;;
56321;SDS011;42227;6.376;-10.782;2023-07-09T12:50:00;7.72;;;4.93;;
56321;SDS011;42227;6.376;-10.782;2023-07-09T12:52:46;12.15;;;6.65;;
56321;SDS011;42227;6.376;-10.782;2023-07-09T12:55:22;6.85;;;4.32;;
56321;SDS011;42227;6.376;-10.782;2023-07-09T12:57:57;8.95;;;4.07;;
56321;SDS011;42227;6.376;-10.782;2023-07-09T13:00:29;7.25;;;4.63;;
56321;SDS011;42227;6.376;-10.782;2023-07-09T13:02:58;8.02;;;3.38;;
56321;SDS011;42227;6.376;-10.782;2023-07-09T13:05:27;5.20;;;3.67;;
56321;SDS011;42227;6.376;-10.782;2023-07-09T13:07:59;10.35;;;4.28;;
56321;SDS011;42227;6.376;-10.782;2023-07-09T13:10:30;8.48;;;4.57;;
56321;SDS011;42227;6.376;-10.782;2023-07-09T13:13:01;12.20;;;8.13;;
56321;SDS011;42227;6.376;-10.782;2023-07-09T13:18:06;18.42;;;12.55;;
56321;SDS011;42227;6.376;-10.782;2023-07-09T13:20:37;10.05;;;7.63;;
56321;SDS011;42227;6.376;-10.782;2023-07-09T13:23:17;16.92;;;11.48;;
56321;SDS011;42227;6.376;-10.782;2023-07-09T13:25:56;24.70;;;15.05;;
56321;SDS011;42227;6.376;-10.782;2023-07-09T13:28:26;22.02;;;13.38;;
56321;SDS011;42227;6.376;-10.782;2023-07-09T13:30:57;6.70;;;4.65;;
56321;SDS011;42227;6.376;-10.782;2023-07-09T13:33:29;17.90;;;11.18;;
56321;SDS011;42227;6.376;-10.782;2023-07-09T13:35:57;8.18;;;5.60;;
56321;SDS011;42227;6.376;-10.782;2023-07-09T13:38:25;7.72;;;5.00;;
56321;SDS011;42227;6.376;-10.782;2023-07-09T13:40:55;10.70;;;5.53;;
56321;SDS011;42227;6.376;-10.782;2023-07-09T13:43:30;9.23;;;6.25;;
56321;SDS011;42227;6.376;-10.782;2023-07-09T13:46:05;10.65;;;5.07;;
56321;SDS011;42227;6.376;-10.782;2023-07-09T13:48:35;7.80;;;4.07;;
56321;SDS011;42227;6.376;-10.782;2023-07-09T13:51:13;8.88;;;4.60;;
56321;SDS011;42227;6.376;-10.782;2023-07-09T13:53:51;5.50;;;3.22;;
56321;SDS011;42227;6.376;-10.782;2023-07-09T13:56:22;4.05;;;3.15;;
56321;SDS011;42227;6.376;-10.782;2023-07-09T13:58:51;5.63;;;3.95;;
56321;SDS011;42227;6.376;-10.782;2023-07-09T14:01:21;6.13;;;4.75;;
56321;SDS011;42227;6.376;-10.782;2023-07-09T14:03:52;5.30;;;3.95;;
56321;SDS011;42227;6.376;-10.782;2023-07-09T14:06:24;10.40;;;5.03;;
56321;SDS011;42227;6.376;-10.782;2023-07-09T14:08:52;6.88;;;5.07;;
56321;SDS011;42227;6.376;-10.782;2023-07-09T14:11:20;7.68;;;4.88;;
56321;SDS011;42227;6.376;-10.782;2023-07-09T14:13:49;4.80;;;4.13;;
56321;SDS011;42227;6.376;-10.782;2023-07-09T14:16:17;10.68;;;4.25;;
56321;SDS011;42227;6.376;-10.782;2023-07-09T14:18:46;5.82;;;4.18;;
56321;SDS011;42227;6.376;-10.782;2023-07-09T14:21:23;4.85;;;3.25;;
56321;SDS011;42227;6.376;-10.782;2023-07-09T14:23:53;9.60;;;3.88;;
56321;SDS011;42227;6.376;-10.782;2023-07-09T14:26:21;6.25;;;3.58;;
56321;SDS011;42227;6.376;-10.782;2023-07-09T14:28:50;4.90;;;3.80;;
56321;SDS011;42227;6.376;-10.782;2023-07-09T14:31:27;5.55;;;3.80;;
56321;SDS011;42227;6.376;-10.782;2023-07-09T14:33:59;7.97;;;5.40;;
56321;SDS011;42227;6.376;-10.782;2023-07-09T14:36:57;6.22;;;3.97;;
56321;SDS011;42227;6.376;-10.782;2023-07-09T14:39:27;9.70;;;4.90;;
56321;SDS011;42227;6.376;-10.782;2023-07-09T14:41:56;6.85;;;4.30;;
56321;SDS011;42227;6.376;-10.782;2023-07-09T14:46:56;6.80;;;3.75;;
56321;SDS011;42227;6.376;-10.782;2023-07-09T14:49:26;6.47;;;3.50;;
56321;SDS011;42227;6.376;-10.782;2023-07-09T14:51:55;4.75;;;3.70;;
56321;SDS011;42227;6.376;-10.782;2023-07-09T14:54:25;4.30;;;3.05;;
56321;SDS011;42227;6.376;-10.782;2023-07-09T14:56:56;5.30;;;3.05;;
56321;SDS011;42227;6.376;-10.782;2023-07-09T14:59:26;5.18;;;3.83;;
56321;SDS011;42227;6.376;-10.782;2023-07-09T15:01:54;4.05;;;3.33;;
56321;SDS011;42227;6.376;-10.782;2023-07-09T15:04:31;6.30;;;3.60;;
56321;SDS011;42227;6.376;-10.782;2023-07-09T15:07:01;5.18;;;3.83;;
56321;SDS011;42227;6.376;-10.782;2023-07-09T15:09:29;3.50;;;2.88;;
56321;SDS011;42227;6.376;-10.782;2023-07-09T15:12:04;5.95;;;4.28;;
56321;SDS011;42227;6.376;-10.782;2023-07-09T15:14:33;6.00;;;4.47;;
56321;SDS011;42227;6.376;-10.782;2023-07-09T15:17:01;9.65;;;4.50;;
56321;SDS011;42227;6.376;-10.782;2023-07-09T15:19:29;6.43;;;5.00;;
56321;SDS011;42227;6.376;-10.782;2023-07-09T15:21:58;10.13;;;5.32;;
56321;SDS011;42227;6.376;-10.782;2023-07-09T15:24:28;12.77;;;6.05;;
56321;SDS011;42227;6.376;-10.782;2023-07-09T15:26:59;6.32;;;4.40;;
56321;SDS011;42227;6.376;-10.782;2023-07-09T15:29:28;5.85;;;4.43;;
56321;SDS011;42227;6.376;-10.782;2023-07-09T15:31:58;8.35;;;4.72;;
56321;SDS011;42227;6.376;-10.782;2023-07-09T15:34:27;7.90;;;4.32;;
56321;SDS011;42227;6.376;-10.782;2023-07-09T15:39:46;9.60;;;6.13;;
56321;SDS011;42227;6.376;-10.782;2023-07-09T15:42:15;10.25;;;5.95;;
56321;SDS011;42227;6.376;-10.782;2023-07-09T15:44:44;7.78;;;6.05;;